Aviation Digital Data Service (ADDS)

Output produced by METARs form (1734 UTC 03 June 2020)
found at http://www.aviationweather.gov/metar/data/
 
METAR text: EPWA 031730Z 36006KT 320V050 9999 FEW046CB 17/07 Q1004 NOSIG
Conditions at: EPWA (WARSAW/OKECIE , PL) observed 1730 UTC 03 June 2020
Temperature: 17.0°C (63°F)
Dewpoint: 7.0°C (45°F) [RH = 52%]
Pressure (altimeter): 29.65 inches Hg (1004.0 mb)
Winds: from the N (360 degrees) at 7 MPH (6 knots; 3.1 m/s)
Visibility: 6 or more miles (10+ km)
Ceiling: at least 12,000 feet AGL
Clouds: few clouds at 4600 feet AGL
Weather: no significant weather observed at this time

METAR text: EPWA 031700Z 33005KT 300V360 CAVOK 16/06 Q1004 NOSIG
Conditions at: EPWA (WARSAW/OKECIE , PL) observed 1700 UTC 03 June 2020
Temperature: 16.0°C (61°F)
Dewpoint: 6.0°C (43°F) [RH = 51%]
Pressure (altimeter): 29.65 inches Hg (1004.0 mb)
Winds: from the NNW (330 degrees) at 6 MPH (5 knots; 2.6 m/s)
Visibility: 6 or more miles (10+ km)
Ceiling: ceiling and visibility are OK
Clouds: unknown
Weather: no significant weather observed at this time

METAR text: EPWA 031630Z 35007KT 320V030 9999 FEW049 17/06 Q1004 NOSIG
Conditions at: EPWA (WARSAW/OKECIE , PL) observed 1630 UTC 03 June 2020
Temperature: 17.0°C (63°F)
Dewpoint: 6.0°C (43°F) [RH = 48%]
Pressure (altimeter): 29.65 inches Hg (1004.0 mb)
Winds: from the N (350 degrees) at 8 MPH (7 knots; 3.6 m/s)
Visibility: 6 or more miles (10+ km)
Ceiling: at least 12,000 feet AGL
Clouds: few clouds at 4900 feet AGL
Weather: no significant weather observed at this time

METAR text: EPWA 031600Z 36005KT 300V050 9999 FEW046 17/07 Q1004 NOSIG
Conditions at: EPWA (WARSAW/OKECIE , PL) observed 1600 UTC 03 June 2020
Temperature: 17.0°C (63°F)
Dewpoint: 7.0°C (45°F) [RH = 52%]
Pressure (altimeter): 29.65 inches Hg (1004.0 mb)
Winds: from the N (360 degrees) at 6 MPH (5 knots; 2.6 m/s)
Visibility: 6 or more miles (10+ km)
Ceiling: at least 12,000 feet AGL
Clouds: few clouds at 4600 feet AGL
Weather: no significant weather observed at this time

METAR text: EPWA 031530Z 02005KT 340V060 9999 FEW045CB 17/07 Q1004 NOSIG
Conditions at: EPWA (WARSAW/OKECIE , PL) observed 1530 UTC 03 June 2020
Temperature: 17.0°C (63°F)
Dewpoint: 7.0°C (45°F) [RH = 52%]
Pressure (altimeter): 29.65 inches Hg (1004.0 mb)
Winds: from the NNE (20 degrees) at 6 MPH (5 knots; 2.6 m/s)
Visibility: 6 or more miles (10+ km)
Ceiling: at least 12,000 feet AGL
Clouds: few clouds at 4500 feet AGL
Weather: no significant weather observed at this time

METAR text: EPWA 031500Z 02006KT 340V060 9999 FEW044 17/06 Q1004 NOSIG
Conditions at: EPWA (WARSAW/OKECIE , PL) observed 1500 UTC 03 June 2020
Temperature: 17.0°C (63°F)
Dewpoint: 6.0°C (43°F) [RH = 48%]
Pressure (altimeter): 29.65 inches Hg (1004.0 mb)
Winds: from the NNE (20 degrees) at 7 MPH (6 knots; 3.1 m/s)
Visibility: 6 or more miles (10+ km)
Ceiling: at least 12,000 feet AGL
Clouds: few clouds at 4400 feet AGL
Weather: no significant weather observed at this time

METAR text: EPWA 031430Z 02007KT 330V060 9999 SCT040 17/07 Q1004 NOSIG
Conditions at: EPWA (WARSAW/OKECIE , PL) observed 1430 UTC 03 June 2020
Temperature: 17.0°C (63°F)
Dewpoint: 7.0°C (45°F) [RH = 52%]
Pressure (altimeter): 29.65 inches Hg (1004.0 mb)
Winds: from the NNE (20 degrees) at 8 MPH (7 knots; 3.6 m/s)
Visibility: 6 or more miles (10+ km)
Ceiling: at least 12,000 feet AGL
Clouds: scattered clouds at 4000 feet AGL
Weather: no significant weather observed at this time

METAR text: EPWA 031400Z 32007KT 300V360 9999 BKN039 16/07 Q1005 NOSIG
Conditions at: EPWA (WARSAW/OKECIE , PL) observed 1400 UTC 03 June 2020
Temperature: 16.0°C (61°F)
Dewpoint: 7.0°C (45°F) [RH = 55%]
Pressure (altimeter): 29.68 inches Hg (1005.0 mb)
Winds: from the NW (320 degrees) at 8 MPH (7 knots; 3.6 m/s)
Visibility: 6 or more miles (10+ km)
Ceiling: 3900 feet AGL
Clouds: broken clouds at 3900 feet AGL
Weather: no significant weather observed at this time

METAR text: EPWA 031330Z 34008KT 290V360 9999 SCT033 17/09 Q1005 NOSIG
Conditions at: EPWA (WARSAW/OKECIE , PL) observed 1330 UTC 03 June 2020
Temperature: 17.0°C (63°F)
Dewpoint: 9.0°C (48°F) [RH = 59%]
Pressure (altimeter): 29.68 inches Hg (1005.0 mb)
Winds: from the NNW (340 degrees) at 9 MPH (8 knots; 4.1 m/s)
Visibility: 6 or more miles (10+ km)
Ceiling: at least 12,000 feet AGL
Clouds: scattered clouds at 3300 feet AGL
Weather: no significant weather observed at this time

METAR text: EPWA 031300Z 32007KT 280V030 9999 SCT029 16/08 Q1005 NOSIG
Conditions at: EPWA (WARSAW/OKECIE , PL) observed 1300 UTC 03 June 2020
Temperature: 16.0°C (61°F)
Dewpoint: 8.0°C (46°F) [RH = 59%]
Pressure (altimeter): 29.68 inches Hg (1005.0 mb)
Winds: from the NW (320 degrees) at 8 MPH (7 knots; 3.6 m/s)
Visibility: 6 or more miles (10+ km)
Ceiling: at least 12,000 feet AGL
Clouds: scattered clouds at 2900 feet AGL
Weather: no significant weather observed at this time

METAR text: EPWA 031230Z 33008KT 290V350 9999 SCT025 16/10 Q1005 NOSIG
Conditions at: EPWA (WARSAW/OKECIE , PL) observed 1230 UTC 03 June 2020
Temperature: 16.0°C (61°F)
Dewpoint: 10.0°C (50°F) [RH = 68%]
Pressure (altimeter): 29.68 inches Hg (1005.0 mb)
Winds: from the NNW (330 degrees) at 9 MPH (8 knots; 4.1 m/s)
Visibility: 6 or more miles (10+ km)
Ceiling: at least 12,000 feet AGL
Clouds: scattered clouds at 2500 feet AGL
Weather: no significant weather observed at this time

METAR text: EPWA 031200Z 35007KT 9999 FEW020 SCT049 15/09 Q1006 NOSIG
Conditions at: EPWA (WARSAW/OKECIE , PL) observed 1200 UTC 03 June 2020
Temperature: 15.0°C (59°F)
Dewpoint: 9.0°C (48°F) [RH = 67%]
Pressure (altimeter): 29.70 inches Hg (1006.0 mb)
Winds: from the N (350 degrees) at 8 MPH (7 knots; 3.6 m/s)
Visibility: 6 or more miles (10+ km)
Ceiling: at least 12,000 feet AGL
Clouds: few clouds at 2000 feet AGL
scattered clouds at 4900 feet AGL
Weather: no significant weather observed at this time

METAR text: EPWA 031130Z 35007KT 320V040 9999 FEW018 BKN039 14/09 Q1006 NOSIG
Conditions at: EPWA (WARSAW/OKECIE , PL) observed 1130 UTC 03 June 2020
Temperature: 14.0°C (57°F)
Dewpoint: 9.0°C (48°F) [RH = 72%]
Pressure (altimeter): 29.70 inches Hg (1006.0 mb)
Winds: from the N (350 degrees) at 8 MPH (7 knots; 3.6 m/s)
Visibility: 6 or more miles (10+ km)
Ceiling: 3900 feet AGL
Clouds: few clouds at 1800 feet AGL
broken clouds at 3900 feet AGL
Weather: no significant weather observed at this time

METAR text: EPWA 031100Z 02005KT 350V050 9999 -SHRA FEW020 BKN039CB 12/10 Q1006 NOSIG
Conditions at: EPWA (WARSAW/OKECIE , PL) observed 1100 UTC 03 June 2020
Temperature: 12.0°C (54°F)
Dewpoint: 10.0°C (50°F) [RH = 88%]
Pressure (altimeter): 29.70 inches Hg (1006.0 mb)
Winds: from the NNE (20 degrees) at 6 MPH (5 knots; 2.6 m/s)
Visibility: 6 or more miles (10+ km)
Ceiling: 3900 feet AGL
Clouds: few clouds at 2000 feet AGL
broken clouds at 3900 feet AGL
Weather: -SHRA  (light rain showers)

METAR text: EPWA 031030Z 03008KT 9999 -SHRA FEW020 BKN039CB 12/09 Q1006 NOSIG
Conditions at: EPWA (WARSAW/OKECIE , PL) observed 1030 UTC 03 June 2020
Temperature: 12.0°C (54°F)
Dewpoint: 9.0°C (48°F) [RH = 82%]
Pressure (altimeter): 29.70 inches Hg (1006.0 mb)
Winds: from the NNE (30 degrees) at 9 MPH (8 knots; 4.1 m/s)
Visibility: 6 or more miles (10+ km)
Ceiling: 3900 feet AGL
Clouds: few clouds at 2000 feet AGL
broken clouds at 3900 feet AGL
Weather: -SHRA  (light rain showers)

METAR text: EPWA 031000Z 34008KT 9999 SCT021TCU BKN041 12/08 Q1006 NOSIG
Conditions at: EPWA (WARSAW/OKECIE , PL) observed 1000 UTC 03 June 2020
Temperature: 12.0°C (54°F)
Dewpoint: 8.0°C (46°F) [RH = 76%]
Pressure (altimeter): 29.70 inches Hg (1006.0 mb)
Winds: from the NNW (340 degrees) at 9 MPH (8 knots; 4.1 m/s)
Visibility: 6 or more miles (10+ km)
Ceiling: 4100 feet AGL
Clouds: scattered clouds at 2100 feet AGL
broken clouds at 4100 feet AGL
Weather: no significant weather observed at this time

METAR text: EPWA 030930Z 33008KT 9999 -SHRA BKN023TCU 12/08 Q1006 NOSIG
Conditions at: EPWA (WARSAW/OKECIE , PL) observed 0930 UTC 03 June 2020
Temperature: 12.0°C (54°F)
Dewpoint: 8.0°C (46°F) [RH = 76%]
Pressure (altimeter): 29.70 inches Hg (1006.0 mb)
Winds: from the NNW (330 degrees) at 9 MPH (8 knots; 4.1 m/s)
Visibility: 6 or more miles (10+ km)
Ceiling: 2300 feet AGL
Clouds: broken clouds at 2300 feet AGL
Weather: -SHRA  (light rain showers)

METAR text: EPWA 030900Z 33008KT 9999 -SHRA BKN024TCU 12/08 Q1006 NOSIG
Conditions at: EPWA (WARSAW/OKECIE , PL) observed 0900 UTC 03 June 2020
Temperature: 12.0°C (54°F)
Dewpoint: 8.0°C (46°F) [RH = 76%]
Pressure (altimeter): 29.70 inches Hg (1006.0 mb)
Winds: from the NNW (330 degrees) at 9 MPH (8 knots; 4.1 m/s)
Visibility: 6 or more miles (10+ km)
Ceiling: 2400 feet AGL
Clouds: broken clouds at 2400 feet AGL
Weather: -SHRA  (light rain showers)

METAR text: EPWA 030830Z 01006KT 320V050 9999 -SHRA BKN026TCU 13/07 Q1006 NOSIG
Conditions at: EPWA (WARSAW/OKECIE , PL) observed 0830 UTC 03 June 2020
Temperature: 13.0°C (55°F)
Dewpoint: 7.0°C (45°F) [RH = 67%]
Pressure (altimeter): 29.70 inches Hg (1006.0 mb)
Winds: from the N (10 degrees) at 7 MPH (6 knots; 3.1 m/s)
Visibility: 6 or more miles (10+ km)
Ceiling: 2600 feet AGL
Clouds: broken clouds at 2600 feet AGL
Weather: -SHRA  (light rain showers)

METAR text: EPWA 030800Z 34006KT 9999 BKN025 13/07 Q1006 NOSIG
Conditions at: EPWA (WARSAW/OKECIE , PL) observed 0800 UTC 03 June 2020
Temperature: 13.0°C (55°F)
Dewpoint: 7.0°C (45°F) [RH = 67%]
Pressure (altimeter): 29.70 inches Hg (1006.0 mb)
Winds: from the NNW (340 degrees) at 7 MPH (6 knots; 3.1 m/s)
Visibility: 6 or more miles (10+ km)
Ceiling: 2500 feet AGL
Clouds: broken clouds at 2500 feet AGL
Weather: no significant weather observed at this time

METAR text: EPWA 030730Z 02005KT 350V050 9999 BKN025 BKN048 13/07 Q1006 NOSIG
Conditions at: EPWA (WARSAW/OKECIE , PL) observed 0730 UTC 03 June 2020
Temperature: 13.0°C (55°F)
Dewpoint: 7.0°C (45°F) [RH = 67%]
Pressure (altimeter): 29.70 inches Hg (1006.0 mb)
Winds: from the NNE (20 degrees) at 6 MPH (5 knots; 2.6 m/s)
Visibility: 6 or more miles (10+ km)
Ceiling: 2500 feet AGL
Clouds: broken clouds at 2500 feet AGL
broken clouds at 4800 feet AGL
Weather: no significant weather observed at this time

METAR text: EPWA 030700Z 03007KT 9999 SCT025 BKN048 12/07 Q1006 NOSIG
Conditions at: EPWA (WARSAW/OKECIE , PL) observed 0700 UTC 03 June 2020
Temperature: 12.0°C (54°F)
Dewpoint: 7.0°C (45°F) [RH = 71%]
Pressure (altimeter): 29.70 inches Hg (1006.0 mb)
Winds: from the NNE (30 degrees) at 8 MPH (7 knots; 3.6 m/s)
Visibility: 6 or more miles (10+ km)
Ceiling: 4800 feet AGL
Clouds: scattered clouds at 2500 feet AGL
broken clouds at 4800 feet AGL
Weather: no significant weather observed at this time

METAR text: EPWA 030630Z 06004KT 360V090 CAVOK 13/07 Q1006 NOSIG
Conditions at: EPWA (WARSAW/OKECIE , PL) observed 0630 UTC 03 June 2020
Temperature: 13.0°C (55°F)
Dewpoint: 7.0°C (45°F) [RH = 67%]
Pressure (altimeter): 29.70 inches Hg (1006.0 mb)
Winds: from the ENE (60 degrees) at 5 MPH (4 knots; 2.1 m/s)
Visibility: 6 or more miles (10+ km)
Ceiling: ceiling and visibility are OK
Clouds: unknown
Weather: no significant weather observed at this time

METAR text: EPWA 030600Z 06004KT 360V090 CAVOK 12/07 Q1006 NOSIG
Conditions at: EPWA (WARSAW/OKECIE , PL) observed 0600 UTC 03 June 2020
Temperature: 12.0°C (54°F)
Dewpoint: 7.0°C (45°F) [RH = 71%]
Pressure (altimeter): 29.70 inches Hg (1006.0 mb)
Winds: from the ENE (60 degrees) at 5 MPH (4 knots; 2.1 m/s)
Visibility: 6 or more miles (10+ km)
Ceiling: ceiling and visibility are OK
Clouds: unknown
Weather: no significant weather observed at this time

METAR text: EPWA 030530Z 07006KT 030V090 9999 SCT046 12/06 Q1006 NOSIG
Conditions at: EPWA (WARSAW/OKECIE , PL) observed 0530 UTC 03 June 2020
Temperature: 12.0°C (54°F)
Dewpoint: 6.0°C (43°F) [RH = 67%]
Pressure (altimeter): 29.70 inches Hg (1006.0 mb)
Winds: from the ENE (70 degrees) at 7 MPH (6 knots; 3.1 m/s)
Visibility: 6 or more miles (10+ km)
Ceiling: at least 12,000 feet AGL
Clouds: scattered clouds at 4600 feet AGL
Weather: no significant weather observed at this time

METAR text: EPWA 030500Z 07004KT CAVOK 12/06 Q1006 NOSIG
Conditions at: EPWA (WARSAW/OKECIE , PL) observed 0500 UTC 03 June 2020
Temperature: 12.0°C (54°F)
Dewpoint: 6.0°C (43°F) [RH = 67%]
Pressure (altimeter): 29.70 inches Hg (1006.0 mb)
Winds: from the ENE (70 degrees) at 5 MPH (4 knots; 2.1 m/s)
Visibility: 6 or more miles (10+ km)
Ceiling: ceiling and visibility are OK
Clouds: unknown
Weather: no significant weather observed at this time

METAR text: EPWA 030430Z 07003KT CAVOK 12/06 Q1006 NOSIG
Conditions at: EPWA (WARSAW/OKECIE , PL) observed 0430 UTC 03 June 2020
Temperature: 12.0°C (54°F)
Dewpoint: 6.0°C (43°F) [RH = 67%]
Pressure (altimeter): 29.70 inches Hg (1006.0 mb)
Winds: from the ENE (70 degrees) at 3 MPH (3 knots; 1.5 m/s)
Visibility: 6 or more miles (10+ km)
Ceiling: ceiling and visibility are OK
Clouds: unknown
Weather: no significant weather observed at this time

METAR text: EPWA 030400Z 05003KT 360V090 CAVOK 12/06 Q1006 NOSIG
Conditions at: EPWA (WARSAW/OKECIE , PL) observed 0400 UTC 03 June 2020
Temperature: 12.0°C (54°F)
Dewpoint: 6.0°C (43°F) [RH = 67%]
Pressure (altimeter): 29.70 inches Hg (1006.0 mb)
Winds: from the NE (50 degrees) at 3 MPH (3 knots; 1.5 m/s)
Visibility: 6 or more miles (10+ km)
Ceiling: ceiling and visibility are OK
Clouds: unknown
Weather: no significant weather observed at this time

METAR text: EPWA 030330Z 05003KT 9999 -RA NSC 11/06 Q1006 NOSIG
Conditions at: EPWA (WARSAW/OKECIE , PL) observed 0330 UTC 03 June 2020
Temperature: 11.0°C (52°F)
Dewpoint: 6.0°C (43°F) [RH = 71%]
Pressure (altimeter): 29.70 inches Hg (1006.0 mb)
Winds: from the NE (50 degrees) at 3 MPH (3 knots; 1.5 m/s)
Visibility: 6 or more miles (10+ km)
Ceiling: at least 12,000 feet AGL
Clouds: sky clear below 12,000 feet AGL
Weather: -RA  (light rain)

METAR text: EPWA 030300Z 03003KT CAVOK 11/06 Q1006 NOSIG
Conditions at: EPWA (WARSAW/OKECIE , PL) observed 0300 UTC 03 June 2020
Temperature: 11.0°C (52°F)
Dewpoint: 6.0°C (43°F) [RH = 71%]
Pressure (altimeter): 29.70 inches Hg (1006.0 mb)
Winds: from the NNE (30 degrees) at 3 MPH (3 knots; 1.5 m/s)
Visibility: 6 or more miles (10+ km)
Ceiling: ceiling and visibility are OK
Clouds: unknown
Weather: no significant weather observed at this time

METAR text: EPWA 030230Z 36003KT CAVOK 10/06 Q1006 NOSIG
Conditions at: EPWA (WARSAW/OKECIE , PL) observed 0230 UTC 03 June 2020
Temperature: 10.0°C (50°F)
Dewpoint: 6.0°C (43°F) [RH = 76%]
Pressure (altimeter): 29.70 inches Hg (1006.0 mb)
Winds: from the N (360 degrees) at 3 MPH (3 knots; 1.5 m/s)
Visibility: 6 or more miles (10+ km)
Ceiling: ceiling and visibility are OK
Clouds: unknown
Weather: no significant weather observed at this time

METAR text: EPWA 030200Z VRB02KT CAVOK 10/06 Q1006 NOSIG
Conditions at: EPWA (WARSAW/OKECIE , PL) observed 0200 UTC 03 June 2020
Temperature: 10.0°C (50°F)
Dewpoint: 6.0°C (43°F) [RH = 76%]
Pressure (altimeter): 29.70 inches Hg (1006.0 mb)
Winds: variable direction winds at 2 MPH (2 knots; 1.0 m/s)
Visibility: 6 or more miles (10+ km)
Ceiling: ceiling and visibility are OK
Clouds: unknown
Weather: no significant weather observed at this time

METAR text: EPWA 030130Z 32005KT CAVOK 08/06 Q1007 NOSIG
Conditions at: EPWA (WARSAW/OKECIE , PL) observed 0130 UTC 03 June 2020
Temperature: 8.0°C (46°F)
Dewpoint: 6.0°C (43°F) [RH = 87%]
Pressure (altimeter): 29.73 inches Hg (1007.0 mb)
Winds: from the NW (320 degrees) at 6 MPH (5 knots; 2.6 m/s)
Visibility: 6 or more miles (10+ km)
Ceiling: ceiling and visibility are OK
Clouds: unknown
Weather: no significant weather observed at this time

METAR text: EPWA 030100Z 29003KT CAVOK 08/05 Q1007 NOSIG
Conditions at: EPWA (WARSAW/OKECIE , PL) observed 0100 UTC 03 June 2020
Temperature: 8.0°C (46°F)
Dewpoint: 5.0°C (41°F) [RH = 81%]
Pressure (altimeter): 29.73 inches Hg (1007.0 mb)
Winds: from the WNW (290 degrees) at 3 MPH (3 knots; 1.5 m/s)
Visibility: 6 or more miles (10+ km)
Ceiling: ceiling and visibility are OK
Clouds: unknown
Weather: no significant weather observed at this time

METAR text: EPWA 030030Z 29002KT CAVOK 09/05 Q1007 NOSIG
Conditions at: EPWA (WARSAW/OKECIE , PL) observed 0030 UTC 03 June 2020
Temperature: 9.0°C (48°F)
Dewpoint: 5.0°C (41°F) [RH = 76%]
Pressure (altimeter): 29.73 inches Hg (1007.0 mb)
Winds: from the WNW (290 degrees) at 2 MPH (2 knots; 1.0 m/s)
Visibility: 6 or more miles (10+ km)
Ceiling: ceiling and visibility are OK
Clouds: unknown
Weather: no significant weather observed at this time

METAR text: EPWA 030000Z 29003KT CAVOK 10/05 Q1007 NOSIG
Conditions at: EPWA (WARSAW/OKECIE , PL) observed 0000 UTC 03 June 2020
Temperature: 10.0°C (50°F)
Dewpoint: 5.0°C (41°F) [RH = 71%]
Pressure (altimeter): 29.73 inches Hg (1007.0 mb)
Winds: from the WNW (290 degrees) at 3 MPH (3 knots; 1.5 m/s)
Visibility: 6 or more miles (10+ km)
Ceiling: ceiling and visibility are OK
Clouds: unknown
Weather: no significant weather observed at this time

METAR text: EPWA 022330Z 33003KT CAVOK 10/05 Q1008 NOSIG
Conditions at: EPWA (WARSAW/OKECIE , PL) observed 2330 UTC 02 June 2020
Temperature: 10.0°C (50°F)
Dewpoint: 5.0°C (41°F) [RH = 71%]
Pressure (altimeter): 29.76 inches Hg (1008.0 mb)
Winds: from the NNW (330 degrees) at 3 MPH (3 knots; 1.5 m/s)
Visibility: 6 or more miles (10+ km)
Ceiling: ceiling and visibility are OK
Clouds: unknown
Weather: no significant weather observed at this time

METAR text: EPWA 022300Z 00000KT CAVOK 11/05 Q1008 NOSIG
Conditions at: EPWA (WARSAW/OKECIE , PL) observed 2300 UTC 02 June 2020
Temperature: 11.0°C (52°F)
Dewpoint: 5.0°C (41°F) [RH = 66%]
Pressure (altimeter): 29.76 inches Hg (1008.0 mb)
Winds: calm
Visibility: 6 or more miles (10+ km)
Ceiling: ceiling and visibility are OK
Clouds: unknown
Weather: no significant weather observed at this time

METAR text: EPWA 022230Z 09003KT CAVOK 12/05 Q1008 NOSIG
Conditions at: EPWA (WARSAW/OKECIE , PL) observed 2230 UTC 02 June 2020
Temperature: 12.0°C (54°F)
Dewpoint: 5.0°C (41°F) [RH = 62%]
Pressure (altimeter): 29.76 inches Hg (1008.0 mb)
Winds: from the E (90 degrees) at 3 MPH (3 knots; 1.5 m/s)
Visibility: 6 or more miles (10+ km)
Ceiling: ceiling and visibility are OK
Clouds: unknown
Weather: no significant weather observed at this time

METAR text: EPWA 022200Z 06007KT CAVOK 14/04 Q1008 NOSIG
Conditions at: EPWA (WARSAW/OKECIE , PL) observed 2200 UTC 02 June 2020
Temperature: 14.0°C (57°F)
Dewpoint: 4.0°C (39°F) [RH = 51%]
Pressure (altimeter): 29.76 inches Hg (1008.0 mb)
Winds: from the ENE (60 degrees) at 8 MPH (7 knots; 3.6 m/s)
Visibility: 6 or more miles (10+ km)
Ceiling: ceiling and visibility are OK
Clouds: unknown
Weather: no significant weather observed at this time

METAR text: EPWA 022130Z 02008KT CAVOK 14/04 Q1008 NOSIG
Conditions at: EPWA (WARSAW/OKECIE , PL) observed 2130 UTC 02 June 2020
Temperature: 14.0°C (57°F)
Dewpoint: 4.0°C (39°F) [RH = 51%]
Pressure (altimeter): 29.76 inches Hg (1008.0 mb)
Winds: from the NNE (20 degrees) at 9 MPH (8 knots; 4.1 m/s)
Visibility: 6 or more miles (10+ km)
Ceiling: ceiling and visibility are OK
Clouds: unknown
Weather: no significant weather observed at this time

METAR text: EPWA 022100Z 34006KT CAVOK 12/05 Q1008 NOSIG
Conditions at: EPWA (WARSAW/OKECIE , PL) observed 2100 UTC 02 June 2020
Temperature: 12.0°C (54°F)
Dewpoint: 5.0°C (41°F) [RH = 62%]
Pressure (altimeter): 29.76 inches Hg (1008.0 mb)
Winds: from the NNW (340 degrees) at 7 MPH (6 knots; 3.1 m/s)
Visibility: 6 or more miles (10+ km)
Ceiling: ceiling and visibility are OK
Clouds: unknown
Weather: no significant weather observed at this time

METAR text: EPWA 022030Z 01006KT CAVOK 14/04 Q1008 NOSIG
Conditions at: EPWA (WARSAW/OKECIE , PL) observed 2030 UTC 02 June 2020
Temperature: 14.0°C (57°F)
Dewpoint: 4.0°C (39°F) [RH = 51%]
Pressure (altimeter): 29.76 inches Hg (1008.0 mb)
Winds: from the N (10 degrees) at 7 MPH (6 knots; 3.1 m/s)
Visibility: 6 or more miles (10+ km)
Ceiling: ceiling and visibility are OK
Clouds: unknown
Weather: no significant weather observed at this time

METAR text: EPWA 022000Z 36005KT 320V020 CAVOK 15/04 Q1008 NOSIG
Conditions at: EPWA (WARSAW/OKECIE , PL) observed 2000 UTC 02 June 2020
Temperature: 15.0°C (59°F)
Dewpoint: 4.0°C (39°F) [RH = 48%]
Pressure (altimeter): 29.76 inches Hg (1008.0 mb)
Winds: from the N (360 degrees) at 6 MPH (5 knots; 2.6 m/s)
Visibility: 6 or more miles (10+ km)
Ceiling: ceiling and visibility are OK
Clouds: unknown
Weather: no significant weather observed at this time

METAR text: EPWA 021930Z 01007KT CAVOK 16/04 Q1008 NOSIG
Conditions at: EPWA (WARSAW/OKECIE , PL) observed 1930 UTC 02 June 2020
Temperature: 16.0°C (61°F)
Dewpoint: 4.0°C (39°F) [RH = 45%]
Pressure (altimeter): 29.76 inches Hg (1008.0 mb)
Winds: from the N (10 degrees) at 8 MPH (7 knots; 3.6 m/s)
Visibility: 6 or more miles (10+ km)
Ceiling: ceiling and visibility are OK
Clouds: unknown
Weather: no significant weather observed at this time

METAR text: EPWA 021900Z 01010KT CAVOK 16/03 Q1008 NOSIG
Conditions at: EPWA (WARSAW/OKECIE , PL) observed 1900 UTC 02 June 2020
Temperature: 16.0°C (61°F)
Dewpoint: 3.0°C (37°F) [RH = 42%]
Pressure (altimeter): 29.76 inches Hg (1008.0 mb)
Winds: from the N (10 degrees) at 12 MPH (10 knots; 5.1 m/s)
Visibility: 6 or more miles (10+ km)
Ceiling: ceiling and visibility are OK
Clouds: unknown
Weather: no significant weather observed at this time

METAR text: EPWA 021830Z 36010KT CAVOK 17/03 Q1008 NOSIG
Conditions at: EPWA (WARSAW/OKECIE , PL) observed 1830 UTC 02 June 2020
Temperature: 17.0°C (63°F)
Dewpoint: 3.0°C (37°F) [RH = 39%]
Pressure (altimeter): 29.76 inches Hg (1008.0 mb)
Winds: from the N (360 degrees) at 12 MPH (10 knots; 5.1 m/s)
Visibility: 6 or more miles (10+ km)
Ceiling: ceiling and visibility are OK
Clouds: unknown
Weather: no significant weather observed at this time

METAR text: EPWA 021800Z 36012KT CAVOK 18/03 Q1008 NOSIG
Conditions at: EPWA (WARSAW/OKECIE , PL) observed 1800 UTC 02 June 2020
Temperature: 18.0°C (64°F)
Dewpoint: 3.0°C (37°F) [RH = 37%]
Pressure (altimeter): 29.76 inches Hg (1008.0 mb)
Winds: from the N (360 degrees) at 14 MPH (12 knots; 6.2 m/s)
Visibility: 6 or more miles (10+ km)
Ceiling: ceiling and visibility are OK
Clouds: unknown
Weather: no significant weather observed at this time

METAR text: EPWA 021730Z 01012KT CAVOK 18/02 Q1008 NOSIG
Conditions at: EPWA (WARSAW/OKECIE , PL) observed 1730 UTC 02 June 2020
Temperature: 18.0°C (64°F)
Dewpoint: 2.0°C (36°F) [RH = 34%]
Pressure (altimeter): 29.76 inches Hg (1008.0 mb)
Winds: from the N (10 degrees) at 14 MPH (12 knots; 6.2 m/s)
Visibility: 6 or more miles (10+ km)
Ceiling: ceiling and visibility are OK
Clouds: unknown
Weather: no significant weather observed at this time

METAR text: EPWA 021700Z 01013KT CAVOK 18/03 Q1009 NOSIG
Conditions at: EPWA (WARSAW/OKECIE , PL) observed 1700 UTC 02 June 2020
Temperature: 18.0°C (64°F)
Dewpoint: 3.0°C (37°F) [RH = 37%]
Pressure (altimeter): 29.79 inches Hg (1009.0 mb)
Winds: from the N (10 degrees) at 15 MPH (13 knots; 6.7 m/s)
Visibility: 6 or more miles (10+ km)
Ceiling: ceiling and visibility are OK
Clouds: unknown
Weather: no significant weather observed at this time

METAR text: EPWA 021630Z 02010KT CAVOK 19/03 Q1009 NOSIG
Conditions at: EPWA (WARSAW/OKECIE , PL) observed 1630 UTC 02 June 2020
Temperature: 19.0°C (66°F)
Dewpoint: 3.0°C (37°F) [RH = 34%]
Pressure (altimeter): 29.79 inches Hg (1009.0 mb)
Winds: from the NNE (20 degrees) at 12 MPH (10 knots; 5.1 m/s)
Visibility: 6 or more miles (10+ km)
Ceiling: ceiling and visibility are OK
Clouds: unknown
Weather: no significant weather observed at this time

METAR text: EPWA 021600Z 35013KT CAVOK 20/04 Q1009 NOSIG
Conditions at: EPWA (WARSAW/OKECIE , PL) observed 1600 UTC 02 June 2020
Temperature: 20.0°C (68°F)
Dewpoint: 4.0°C (39°F) [RH = 35%]
Pressure (altimeter): 29.79 inches Hg (1009.0 mb)
Winds: from the N (350 degrees) at 15 MPH (13 knots; 6.7 m/s)
Visibility: 6 or more miles (10+ km)
Ceiling: ceiling and visibility are OK
Clouds: unknown
Weather: no significant weather observed at this time

METAR text: EPWA 021530Z 01013KT CAVOK 19/04 Q1009 NOSIG
Conditions at: EPWA (WARSAW/OKECIE , PL) observed 1530 UTC 02 June 2020
Temperature: 19.0°C (66°F)
Dewpoint: 4.0°C (39°F) [RH = 37%]
Pressure (altimeter): 29.79 inches Hg (1009.0 mb)
Winds: from the N (10 degrees) at 15 MPH (13 knots; 6.7 m/s)
Visibility: 6 or more miles (10+ km)
Ceiling: ceiling and visibility are OK
Clouds: unknown
Weather: no significant weather observed at this time

METAR text: EPWA 021500Z 36011KT CAVOK 20/04 Q1009 NOSIG
Conditions at: EPWA (WARSAW/OKECIE , PL) observed 1500 UTC 02 June 2020
Temperature: 20.0°C (68°F)
Dewpoint: 4.0°C (39°F) [RH = 35%]
Pressure (altimeter): 29.79 inches Hg (1009.0 mb)
Winds: from the N (360 degrees) at 13 MPH (11 knots; 5.7 m/s)
Visibility: 6 or more miles (10+ km)
Ceiling: ceiling and visibility are OK
Clouds: unknown
Weather: no significant weather observed at this time

METAR text: EPWA 021430Z 35013KT CAVOK 20/04 Q1010 NOSIG
Conditions at: EPWA (WARSAW/OKECIE , PL) observed 1430 UTC 02 June 2020
Temperature: 20.0°C (68°F)
Dewpoint: 4.0°C (39°F) [RH = 35%]
Pressure (altimeter): 29.82 inches Hg (1010.0 mb)
Winds: from the N (350 degrees) at 15 MPH (13 knots; 6.7 m/s)
Visibility: 6 or more miles (10+ km)
Ceiling: ceiling and visibility are OK
Clouds: unknown
Weather: no significant weather observed at this time

METAR text: EPWA 021400Z 35011KT 310V030 CAVOK 19/05 Q1010 NOSIG
Conditions at: EPWA (WARSAW/OKECIE , PL) observed 1400 UTC 02 June 2020
Temperature: 19.0°C (66°F)
Dewpoint: 5.0°C (41°F) [RH = 40%]
Pressure (altimeter): 29.82 inches Hg (1010.0 mb)
Winds: from the N (350 degrees) at 13 MPH (11 knots; 5.7 m/s)
Visibility: 6 or more miles (10+ km)
Ceiling: ceiling and visibility are OK
Clouds: unknown
Weather: no significant weather observed at this time

METAR text: EPWA 021330Z 36014KT 330V040 CAVOK 19/05 Q1010 NOSIG
Conditions at: EPWA (WARSAW/OKECIE , PL) observed 1330 UTC 02 June 2020
Temperature: 19.0°C (66°F)
Dewpoint: 5.0°C (41°F) [RH = 40%]
Pressure (altimeter): 29.82 inches Hg (1010.0 mb)
Winds: from the N (360 degrees) at 16 MPH (14 knots; 7.2 m/s)
Visibility: 6 or more miles (10+ km)
Ceiling: ceiling and visibility are OK
Clouds: unknown
Weather: no significant weather observed at this time

METAR text: EPWA 021300Z 32013KT CAVOK 19/06 Q1011 NOSIG
Conditions at: EPWA (WARSAW/OKECIE , PL) observed 1300 UTC 02 June 2020
Temperature: 19.0°C (66°F)
Dewpoint: 6.0°C (43°F) [RH = 43%]
Pressure (altimeter): 29.85 inches Hg (1011.0 mb)
Winds: from the NW (320 degrees) at 15 MPH (13 knots; 6.7 m/s)
Visibility: 6 or more miles (10+ km)
Ceiling: ceiling and visibility are OK
Clouds: unknown
Weather: no significant weather observed at this time

METAR text: EPWA 021230Z 33010KT 300V360 CAVOK 19/06 Q1011 NOSIG
Conditions at: EPWA (WARSAW/OKECIE , PL) observed 1230 UTC 02 June 2020
Temperature: 19.0°C (66°F)
Dewpoint: 6.0°C (43°F) [RH = 43%]
Pressure (altimeter): 29.85 inches Hg (1011.0 mb)
Winds: from the NNW (330 degrees) at 12 MPH (10 knots; 5.1 m/s)
Visibility: 6 or more miles (10+ km)
Ceiling: ceiling and visibility are OK
Clouds: unknown
Weather: no significant weather observed at this time

METAR text: EPWA 021200Z 35011KT CAVOK 19/05 Q1011 NOSIG
Conditions at: EPWA (WARSAW/OKECIE , PL) observed 1200 UTC 02 June 2020
Temperature: 19.0°C (66°F)
Dewpoint: 5.0°C (41°F) [RH = 40%]
Pressure (altimeter): 29.85 inches Hg (1011.0 mb)
Winds: from the N (350 degrees) at 13 MPH (11 knots; 5.7 m/s)
Visibility: 6 or more miles (10+ km)
Ceiling: ceiling and visibility are OK
Clouds: unknown
Weather: no significant weather observed at this time

METAR text: EPWA 021130Z 34014KT CAVOK 18/04 Q1012 NOSIG
Conditions at: EPWA (WARSAW/OKECIE , PL) observed 1130 UTC 02 June 2020
Temperature: 18.0°C (64°F)
Dewpoint: 4.0°C (39°F) [RH = 39%]
Pressure (altimeter): 29.88 inches Hg (1012.0 mb)
Winds: from the NNW (340 degrees) at 16 MPH (14 knots; 7.2 m/s)
Visibility: 6 or more miles (10+ km)
Ceiling: ceiling and visibility are OK
Clouds: unknown
Weather: no significant weather observed at this time

METAR text: EPWA 021100Z 36010KT 340V040 CAVOK 17/05 Q1012 NOSIG
Conditions at: EPWA (WARSAW/OKECIE , PL) observed 1100 UTC 02 June 2020
Temperature: 17.0°C (63°F)
Dewpoint: 5.0°C (41°F) [RH = 45%]
Pressure (altimeter): 29.88 inches Hg (1012.0 mb)
Winds: from the N (360 degrees) at 12 MPH (10 knots; 5.1 m/s)
Visibility: 6 or more miles (10+ km)
Ceiling: ceiling and visibility are OK
Clouds: unknown
Weather: no significant weather observed at this time

METAR text: EPWA 021030Z 35010G20KT 310V060 CAVOK 17/05 Q1012 NOSIG
Conditions at: EPWA (WARSAW/OKECIE , PL) observed 1030 UTC 02 June 2020
Temperature: 17.0°C (63°F)
Dewpoint: 5.0°C (41°F) [RH = 45%]
Pressure (altimeter): 29.88 inches Hg (1012.0 mb)
Winds: from the N (350 degrees) at 12 MPH (10 knots; 5.1 m/s)
gusting to 23 MPH (20 knots; 10.3 m/s)
Visibility: 6 or more miles (10+ km)
Ceiling: ceiling and visibility are OK
Clouds: unknown
Weather: no significant weather observed at this time

METAR text: EPWA 021000Z 36011KT 320V020 CAVOK 18/05 Q1013 NOSIG
Conditions at: EPWA (WARSAW/OKECIE , PL) observed 1000 UTC 02 June 2020
Temperature: 18.0°C (64°F)
Dewpoint: 5.0°C (41°F) [RH = 42%]
Pressure (altimeter): 29.91 inches Hg (1013.0 mb)
Winds: from the N (360 degrees) at 13 MPH (11 knots; 5.7 m/s)
Visibility: 6 or more miles (10+ km)
Ceiling: ceiling and visibility are OK
Clouds: unknown
Weather: no significant weather observed at this time

METAR text: EPWA 020930Z 36011KT 320V040 CAVOK 17/06 Q1013 NOSIG
Conditions at: EPWA (WARSAW/OKECIE , PL) observed 0930 UTC 02 June 2020
Temperature: 17.0°C (63°F)
Dewpoint: 6.0°C (43°F) [RH = 48%]
Pressure (altimeter): 29.91 inches Hg (1013.0 mb)
Winds: from the N (360 degrees) at 13 MPH (11 knots; 5.7 m/s)
Visibility: 6 or more miles (10+ km)
Ceiling: ceiling and visibility are OK
Clouds: unknown
Weather: no significant weather observed at this time

METAR text: EPWA 020900Z 36011KT 330V030 9999 FEW046 17/06 Q1013 NOSIG
Conditions at: EPWA (WARSAW/OKECIE , PL) observed 0900 UTC 02 June 2020
Temperature: 17.0°C (63°F)
Dewpoint: 6.0°C (43°F) [RH = 48%]
Pressure (altimeter): 29.91 inches Hg (1013.0 mb)
Winds: from the N (360 degrees) at 13 MPH (11 knots; 5.7 m/s)
Visibility: 6 or more miles (10+ km)
Ceiling: at least 12,000 feet AGL
Clouds: few clouds at 4600 feet AGL
Weather: no significant weather observed at this time

METAR text: EPWA 020830Z 35012KT 9999 FEW046 16/05 Q1013 NOSIG
Conditions at: EPWA (WARSAW/OKECIE , PL) observed 0830 UTC 02 June 2020
Temperature: 16.0°C (61°F)
Dewpoint: 5.0°C (41°F) [RH = 48%]
Pressure (altimeter): 29.91 inches Hg (1013.0 mb)
Winds: from the N (350 degrees) at 14 MPH (12 knots; 6.2 m/s)
Visibility: 6 or more miles (10+ km)
Ceiling: at least 12,000 feet AGL
Clouds: few clouds at 4600 feet AGL
Weather: no significant weather observed at this time

METAR text: EPWA 020800Z 35011KT 320V040 9999 FEW040 16/05 Q1014 NOSIG
Conditions at: EPWA (WARSAW/OKECIE , PL) observed 0800 UTC 02 June 2020
Temperature: 16.0°C (61°F)
Dewpoint: 5.0°C (41°F) [RH = 48%]
Pressure (altimeter): 29.94 inches Hg (1014.0 mb)
Winds: from the N (350 degrees) at 13 MPH (11 knots; 5.7 m/s)
Visibility: 6 or more miles (10+ km)
Ceiling: at least 12,000 feet AGL
Clouds: few clouds at 4000 feet AGL
Weather: no significant weather observed at this time

METAR text: EPWA 020730Z 36013KT 9999 FEW033 15/04 Q1014 NOSIG
Conditions at: EPWA (WARSAW/OKECIE , PL) observed 0730 UTC 02 June 2020
Temperature: 15.0°C (59°F)
Dewpoint: 4.0°C (39°F) [RH = 48%]
Pressure (altimeter): 29.94 inches Hg (1014.0 mb)
Winds: from the N (360 degrees) at 15 MPH (13 knots; 6.7 m/s)
Visibility: 6 or more miles (10+ km)
Ceiling: at least 12,000 feet AGL
Clouds: few clouds at 3300 feet AGL
Weather: no significant weather observed at this time

METAR text: EPWA 020700Z 35011KT 9999 FEW033 15/06 Q1014 NOSIG
Conditions at: EPWA (WARSAW/OKECIE , PL) observed 0700 UTC 02 June 2020
Temperature: 15.0°C (59°F)
Dewpoint: 6.0°C (43°F) [RH = 55%]
Pressure (altimeter): 29.94 inches Hg (1014.0 mb)
Winds: from the N (350 degrees) at 13 MPH (11 knots; 5.7 m/s)
Visibility: 6 or more miles (10+ km)
Ceiling: at least 12,000 feet AGL
Clouds: few clouds at 3300 feet AGL
Weather: no significant weather observed at this time

METAR text: EPWA 020630Z 34008KT CAVOK 14/07 Q1014 NOSIG
Conditions at: EPWA (WARSAW/OKECIE , PL) observed 0630 UTC 02 June 2020
Temperature: 14.0°C (57°F)
Dewpoint: 7.0°C (45°F) [RH = 63%]
Pressure (altimeter): 29.94 inches Hg (1014.0 mb)
Winds: from the NNW (340 degrees) at 9 MPH (8 knots; 4.1 m/s)
Visibility: 6 or more miles (10+ km)
Ceiling: ceiling and visibility are OK
Clouds: unknown
Weather: no significant weather observed at this time

METAR text: EPWA 020600Z 01008KT 330V040 CAVOK 13/07 Q1014 NOSIG
Conditions at: EPWA (WARSAW/OKECIE , PL) observed 0600 UTC 02 June 2020
Temperature: 13.0°C (55°F)
Dewpoint: 7.0°C (45°F) [RH = 67%]
Pressure (altimeter): 29.94 inches Hg (1014.0 mb)
Winds: from the N (10 degrees) at 9 MPH (8 knots; 4.1 m/s)
Visibility: 6 or more miles (10+ km)
Ceiling: ceiling and visibility are OK
Clouds: unknown
Weather: no significant weather observed at this time

Forecast for: EPWA (WARSAW/OKECIE , PL)
Text: TAF EPWA 031730Z 0318/0418 34010KT CAVOK
Forecast period: 1800 UTC 03 June 2020 to 1800 UTC 04 June 2020
Forecast type: FROM: standard forecast or significant change
Winds: from the NNW (340 degrees) at 12 MPH (10 knots; 5.1 m/s)
Visibility: 6 or more miles 10+ km)
Ceiling: unknown
Clouds: missing
Weather: NSW  (no significant weather)
Text: BECMG 0318/0321 VRB02KT
Forecast period: 1800 UTC 03 June 2020 to 1800 UTC 04 June 2020
Forecast type: BECOMING: Conditions expected to become as follows by 2100 UTC 03 June 2020
Winds: variable direction winds at 2 MPH (2 knots; 1.0 m/s)
Visibility: 6 or more miles 10+ km)
Ceiling: unknown
Clouds: missing
Weather: NSW  (no significant weather)
Text: TEMPO 0318/0320 -SHRA SCT035CB
Forecast period: 1800 to 2000 UTC 03 June 2020
Forecast type: TEMPORARY: The following changes expected for less than half the time period
Visibility: missing
Ceiling: at least 12,000 feet AGL
Clouds: scattered clouds at 3500 feet AGL
Weather: -SHRA  (light rain showers)
Text: PROB40 0322/0404 3000 BR
Forecast period: 2200 UTC 03 June 2020 to 0400 UTC 04 June 2020
Forecast type: PROBABLE: 40 percent likelihood of the following during this time
Visibility: 1.86 miles (2.99 km)
Ceiling: unknown
Clouds: missing
Weather: BR  (mist)
Text: PROB40
Forecast period: 0900 to 1600 UTC 04 June 2020
Forecast type: TEMPORARY: The following changes expected for less than half the time period
Visibility: missing
Ceiling: at least 12,000 feet AGL
Clouds: scattered clouds at 4000 feet AGL
Weather: no significant weather forecast for this period